Time;durP1;ratioP1;P1;durP2;ratioP2;P2;SDS_P1;SDS_P2;PMS_P1;PMS_P2;Temp;Humidity;BMP_temperature;BMP_pressure;BME280_temperature;BME280_humidity;BME280_pressure;Samples;Min_cycle;Max_cycle;Signal;HPM_P1;HPM_P2
2021/04/10 00:01:36;;;;;;;10.35;3.65;;;;;;;5.44;94.26;101098.72;6199291;28;20054;-70
2021/04/10 00:04:37;;;;;;;15.32;3.20;;;;;;;5.45;91.74;101083.94;6198981;28;20073;-70
2021/04/10 00:07:38;;;;;;;15.02;3.10;;;;;;;5.44;91.12;101088.31;6198924;28;20051;-70
2021/04/10 00:10:39;;;;;;;12.27;3.58;;;;;;;5.46;91.81;101086.53;6199050;28;20050;-70
2021/04/10 00:13:40;;;;;;;11.35;4.38;;;;;;;5.45;90.87;101084.81;6198626;28;20541;-70
2021/04/10 00:16:43;;;;;;;13.60;4.03;;;;;;;5.45;90.04;101084.81;6199155;28;20545;-70
2021/04/10 00:19:44;;;;;;;19.70;4.15;;;;;;;5.40;90.19;101084.06;6198889;28;20042;-70
2021/04/10 00:22:45;;;;;;;15.23;4.25;;;;;;;5.42;91.07;101090.09;6198771;28;20084;-70
2021/04/10 00:25:46;;;;;;;11.18;3.53;;;;;;;5.49;91.35;101094.25;6198578;28;20047;-70
2021/04/10 00:28:47;;;;;;;12.00;3.53;;;;;;;5.46;91.05;101088.28;6198563;28;20142;-70
2021/04/10 00:31:48;;;;;;;14.43;3.70;;;;;;;5.43;91.75;101076.16;6198667;28;20046;-70
2021/04/10 00:34:49;;;;;;;10.38;4.43;;;;;;;5.45;92.68;101082.22;6198372;28;20054;-70
2021/04/10 00:37:50;;;;;;;22.42;4.25;;;;;;;5.44;92.00;101085.69;6198637;28;20052;-70
2021/04/10 00:40:51;;;;;;;13.82;5.03;;;;;;;5.43;93.02;101083.13;6198666;28;20046;-70
2021/04/10 00:43:52;;;;;;;13.55;5.03;;;;;;;5.42;93.01;101084.03;6198726;28;20086;-70
2021/04/10 00:46:54;;;;;;;19.60;6.05;;;;;;;5.40;93.63;101080.59;6198690;28;20051;-70
2021/04/10 00:49:55;;;;;;;15.70;6.43;;;;;;;5.29;92.81;101080.91;6198381;28;20517;-70
2021/04/10 00:52:56;;;;;;;16.30;6.20;;;;;;;5.20;93.35;101088.94;6198413;28;20091;-70
2021/04/10 00:56:00;;;;;;;14.50;6.40;;;;;;;5.12;94.13;101080.47;6198375;28;20077;-70
2021/04/10 00:59:01;;;;;;;14.88;6.13;;;;;;;5.09;94.34;101073.59;6198446;28;20054;-70
2021/04/10 01:02:02;;;;;;;20.60;6.85;;;;;;;5.13;95.55;101083.03;6197980;28;20101;-70
2021/04/10 01:05:04;;;;;;;18.52;7.22;;;;;;;5.18;95.99;101085.50;6198001;28;20054;-70
2021/04/10 01:08:06;;;;;;;13.80;6.47;;;;;;;5.20;95.99;101081.13;6197937;28;20051;-70
2021/04/10 01:11:14;;;;;;;18.52;6.63;;;;;;;5.17;95.61;101076.84;6198150;28;20449;-70
2021/04/10 01:14:23;;;;;;;19.42;7.05;;;;;;;5.15;95.09;101080.41;6197605;28;20525;-70
2021/04/10 01:17:29;;;;;;;18.52;6.45;;;;;;;5.15;95.63;101069.97;6198067;28;20053;-70
2021/04/10 01:20:54;;;;;;;16.13;6.28;;;;;;;5.20;95.38;101078.53;6197862;28;20053;-71
2021/04/10 01:24:26;;;;;;;17.42;5.88;;;;;;;5.13;94.55;101079.56;6197556;28;20255;-70
2021/04/10 01:27:37;;;;;;;18.77;6.80;;;;;;;5.13;94.51;101077.81;6197788;28;20046;-70
2021/04/10 01:30:39;;;;;;;16.27;5.57;;;;;;;5.19;93.89;101085.50;6197740;28;20106;-70
2021/04/10 01:33:46;;;;;;;15.73;6.55;;;;;;;5.16;94.82;101080.34;6197277;28;20054;-70
2021/04/10 01:36:49;;;;;;;12.65;6.35;;;;;;;5.17;95.32;101087.28;6197702;28;20061;-70
2021/04/10 01:39:51;;;;;;;20.85;6.18;;;;;;;5.18;95.33;101083.78;6197474;28;20053;-70
2021/04/10 01:42:53;;;;;;;15.80;6.50;;;;;;;5.20;95.59;101078.53;6197299;28;20054;-70
2021/04/10 01:45:56;;;;;;;17.60;6.75;;;;;;;5.22;95.48;101082.81;6198730;28;20050;-70
2021/04/10 01:48:58;;;;;;;15.68;6.13;;;;;;;5.23;95.00;101079.31;6202246;28;20410;-71
2021/04/10 01:51:59;;;;;;;15.23;5.55;;;;;;;5.19;94.27;101082.03;6202094;28;20516;-70
2021/04/10 01:55:01;;;;;;;17.90;5.78;;;;;;;5.14;93.64;101087.38;6201874;28;20054;-70
2021/04/10 01:58:03;;;;;;;24.15;6.50;;;;;;;5.13;94.89;101088.25;6202030;28;20525;-70
2021/04/10 02:01:07;;;;;;;16.58;6.15;;;;;;;5.15;94.70;101094.28;6202286;28;20050;-70
2021/04/10 02:04:09;;;;;;;18.90;7.45;;;;;;;5.15;94.27;101099.50;6201421;28;20086;-70
2021/04/10 02:07:11;;;;;;;22.80;6.97;;;;;;;5.15;94.16;101098.63;6201767;28;20410;-70
2021/04/10 02:10:15;;;;;;;19.95;6.13;;;;;;;5.16;93.13;101105.56;6201966;28;20050;-70
2021/04/10 02:13:16;;;;;;;12.75;5.97;;;;;;;5.09;92.22;101105.72;6201439;28;20057;-70
2021/04/10 02:16:18;;;;;;;19.70;6.10;;;;;;;5.08;93.55;101103.97;6201842;28;20050;-70
2021/04/10 02:19:19;;;;;;;19.15;6.20;;;;;;;5.11;93.80;101107.44;6201606;28;20054;-71
2021/04/10 02:22:22;;;;;;;15.10;5.93;;;;;;;5.12;93.97;101109.13;6201744;28;20065;-70
2021/04/10 02:25:26;;;;;;;19.88;6.07;;;;;;;5.15;94.15;101114.28;6201360;28;20488;-70
2021/04/10 02:28:27;;;;;;;18.75;6.03;;;;;;;5.16;94.21;101113.38;6201682;28;20049;-70
2021/04/10 02:31:32;;;;;;;17.65;5.93;;;;;;;5.15;93.54;101115.13;6201360;28;20514;-70
2021/04/10 02:34:38;;;;;;;13.45;4.80;;;;;;;5.19;93.33;101119.38;6201224;28;20057;-71
2021/04/10 02:37:40;;;;;;;24.50;7.32;;;;;;;5.11;92.81;101134.31;6201169;28;20057;-71
2021/04/10 02:40:44;;;;;;;21.20;7.25;;;;;;;5.11;92.67;101129.13;6201329;28;20077;-70
2021/04/10 02:43:55;;;;;;;23.00;5.20;;;;;;;5.11;93.22;101125.66;6200853;28;20053;-70
2021/04/10 02:47:01;;;;;;;23.05;5.78;;;;;;;5.05;93.45;101130.13;6201158;28;20058;-70
2021/04/10 02:50:04;;;;;;;13.65;5.75;;;;;;;5.04;93.19;101130.16;6201015;28;20054;-70
2021/04/10 02:53:07;;;;;;;18.00;5.97;;;;;;;5.05;93.45;101137.09;6200773;28;20057;-70
2021/04/10 02:56:10;;;;;;;21.33;6.32;;;;;;;5.04;93.43;101136.25;6200882;28;20116;-70
2021/04/10 02:59:13;;;;;;;17.10;5.93;;;;;;;4.98;93.24;101132.91;6199107;28;20502;-70
2021/04/10 03:02:16;;;;;;;24.88;6.97;;;;;;;4.95;93.08;101144.28;6200919;28;20050;-70
2021/04/10 03:05:17;;;;;;;25.17;5.85;;;;;;;4.95;93.50;101139.06;6200160;28;20458;-70
2021/04/10 03:08:20;;;;;;;12.68;5.43;;;;;;;5.06;93.35;101141.41;6200686;28;20073;-70
2021/04/10 03:11:21;;;;;;;19.83;6.70;;;;;;;5.00;91.63;101145.00;6200462;28;20085;-70
2021/04/10 03:14:23;;;;;;;13.80;4.97;;;;;;;4.98;92.28;101138.97;6200241;28;20465;-70
2021/04/10 03:17:26;;;;;;;16.90;5.20;;;;;;;4.86;92.39;101141.00;6200300;28;20414;-70
2021/04/10 03:20:27;;;;;;;16.23;5.53;;;;;;;4.84;92.79;101146.25;6200433;28;20105;-69
2021/04/10 03:23:28;;;;;;;11.02;5.07;;;;;;;4.85;94.26;101134.94;6199961;28;20526;-70
2021/04/10 03:26:30;;;;;;;20.65;6.43;;;;;;;4.79;94.53;101142.91;6200307;28;20054;-70
2021/04/10 03:29:30;;;;;;;26.35;6.95;;;;;;;4.80;95.17;101140.25;6199976;28;20434;-70
2021/04/10 03:32:33;;;;;;;14.45;5.78;;;;;;;4.83;95.24;101140.19;6199917;28;20050;-69
2021/04/10 03:35:34;;;;;;;18.48;6.57;;;;;;;4.84;94.42;101139.28;6199748;28;20105;-70
2021/04/10 03:38:35;;;;;;;17.58;5.68;;;;;;;4.81;94.65;101136.78;6199803;28;20050;-70
2021/04/10 03:41:36;;;;;;;22.77;7.25;;;;;;;4.82;94.98;101150.66;6200029;28;20057;-69
2021/04/10 03:44:37;;;;;;;22.13;6.07;;;;;;;4.78;94.32;101144.66;6199386;28;20050;-70
2021/04/10 03:47:40;;;;;;;14.48;5.13;;;;;;;4.78;94.70;101152.47;6199710;28;20391;-70
2021/04/10 03:50:40;;;;;;;18.15;6.35;;;;;;;4.79;94.22;101146.38;6199422;28;20046;-70
2021/04/10 03:53:41;;;;;;;19.50;6.13;;;;;;;4.74;94.59;101145.63;6199096;28;20057;-70
2021/04/10 03:56:42;;;;;;;16.25;5.78;;;;;;;4.74;95.07;101145.63;6199517;28;20060;-70
2021/04/10 03:59:43;;;;;;;19.15;6.63;;;;;;;4.75;95.70;101162.09;6199592;28;20048;-70
2021/04/10 04:02:45;;;;;;;31.55;9.88;;;;;;;4.76;94.71;101155.97;6199464;28;20060;-70
2021/04/10 04:05:46;;;;;;;21.10;6.35;;;;;;;4.73;94.92;101161.28;6198816;28;20407;-70
2021/04/10 04:08:46;;;;;;;17.63;6.28;;;;;;;4.77;95.14;101162.94;6198463;28;20078;-70
2021/04/10 04:11:47;;;;;;;16.73;5.82;;;;;;;4.75;95.10;101168.16;6198876;28;20078;-70
2021/04/10 04:14:48;;;;;;;16.63;5.90;;;;;;;4.82;95.42;101174.09;6198881;28;20057;-70
2021/04/10 04:17:50;;;;;;;20.30;6.50;;;;;;;4.78;95.08;101177.66;6198991;28;20417;-70
2021/04/10 04:20:51;;;;;;;15.52;5.88;;;;;;;4.83;95.01;101174.03;6198984;28;20046;-70
2021/04/10 04:23:52;;;;;;;18.98;6.25;;;;;;;4.82;94.73;101177.53;6198672;28;20072;-70
2021/04/10 04:26:53;;;;;;;15.65;5.90;;;;;;;4.73;94.70;101184.72;6198614;28;20136;-70
2021/04/10 04:29:54;;;;;;;17.88;6.05;;;;;;;4.69;95.42;101183.91;6198631;28;20082;-70
2021/04/10 04:32:56;;;;;;;19.88;5.93;;;;;;;4.76;95.15;101179.41;6198405;28;20046;-70
2021/04/10 04:35:57;;;;;;;17.42;5.78;;;;;;;4.63;95.01;101185.78;6198541;28;20050;-70
2021/04/10 04:38:58;;;;;;;16.30;5.80;;;;;;;4.66;95.89;101189.19;6198455;28;20470;-70
2021/04/10 04:41:59;;;;;;;17.45;6.25;;;;;;;4.70;95.26;101198.63;6198540;28;20498;-70
2021/04/10 04:45:01;;;;;;;18.30;6.45;;;;;;;4.66;95.18;101199.59;6198092;28;20077;-70
2021/04/10 04:48:03;;;;;;;28.33;7.15;;;;;;;4.58;96.33;101207.56;6198646;28;20097;-70
2021/04/10 04:51:04;;;;;;;17.65;6.55;;;;;;;4.58;95.77;101204.94;6198250;28;20050;-70
2021/04/10 04:54:05;;;;;;;20.27;6.50;;;;;;;4.62;95.29;101204.91;6197996;28;20050;-70
2021/04/10 04:57:06;;;;;;;30.75;6.32;;;;;;;4.56;95.86;101211.09;6198081;28;20065;-70
2021/04/10 05:00:08;;;;;;;20.92;5.72;;;;;;;4.53;95.91;101214.59;6198073;28;20050;-69
2021/04/10 05:03:10;;;;;;;17.70;5.55;;;;;;;4.54;95.89;101223.25;6197974;28;20081;-69
2021/04/10 05:06:11;;;;;;;22.67;6.38;;;;;;;4.52;96.43;101217.25;6197918;28;20101;-69
2021/04/10 05:09:12;;;;;;;17.98;6.10;;;;;;;4.52;97.17;101219.84;6197985;28;20050;-69
2021/04/10 05:12:13;;;;;;;17.73;5.70;;;;;;;4.54;97.80;101225.88;6197691;28;20133;-70
2021/04/10 05:15:14;;;;;;;24.75;5.82;;;;;;;4.49;97.83;101228.56;6197775;28;20060;-70
2021/04/10 05:18:16;;;;;;;24.50;6.53;;;;;;;4.48;98.47;101226.84;6197638;28;20042;-70
2021/04/10 05:21:17;;;;;;;21.50;6.05;;;;;;;4.46;98.72;101231.25;6197328;28;20051;-70
2021/04/10 05:24:18;;;;;;;15.15;6.07;;;;;;;4.43;98.52;101241.72;6197483;28;20061;-70
2021/04/10 05:27:19;;;;;;;15.97;5.23;;;;;;;4.45;98.84;101231.25;6197896;28;20046;-70
2021/04/10 05:30:20;;;;;;;23.00;5.65;;;;;;;4.42;98.65;101245.22;6197757;28;20057;-70
2021/04/10 05:33:22;;;;;;;15.40;5.38;;;;;;;4.42;98.80;101244.34;6197132;28;20506;-70
2021/04/10 05:36:23;;;;;;;14.45;5.22;;;;;;;4.42;99.48;101249.56;6197909;28;20101;-70
2021/04/10 05:39:24;;;;;;;15.80;5.90;;;;;;;4.41;99.50;101253.91;6197482;28;20046;-70
2021/04/10 05:42:25;;;;;;;22.65;6.18;;;;;;;4.38;100.00;101256.56;6197728;28;20042;-70
2021/04/10 05:45:26;;;;;;;21.02;6.13;;;;;;;4.37;100.00;101249.66;6197199;28;20116;-70
2021/04/10 05:48:27;;;;;;;20.92;6.30;;;;;;;4.40;100.00;101253.91;6197516;28;20054;-70
2021/04/10 05:51:28;;;;;;;24.85;5.93;;;;;;;4.46;100.00;101264.22;6197415;28;20058;-70
2021/04/10 05:54:29;;;;;;;22.70;6.35;;;;;;;4.42;100.00;101271.22;6263654;23;20045;-75
2021/04/10 05:57:30;;;;;;;20.85;6.85;;;;;;;4.45;100.00;101270.31;6235224;28;20049;-75
2021/04/10 06:00:31;;;;;;;23.08;5.78;;;;;;;4.50;100.00;101276.28;6229722;28;20060;-75
2021/04/10 06:03:33;;;;;;;21.75;6.78;;;;;;;4.53;100.00;101282.28;6234242;28;21059;-75
2021/04/10 06:06:34;;;;;;;25.83;6.50;;;;;;;4.55;100.00;101282.25;6205161;28;20050;-76
2021/04/10 06:09:35;;;;;;;18.27;6.00;;;;;;;4.55;100.00;101280.53;6197395;28;20578;-75
2021/04/10 06:12:36;;;;;;;25.83;5.80;;;;;;;4.59;100.00;101283.91;6197136;28;20054;-76
2021/04/10 06:15:37;;;;;;;21.55;5.80;;;;;;;4.56;99.24;101278.78;6197122;28;20050;-76
2021/04/10 06:18:39;;;;;;;15.27;5.93;;;;;;;4.60;100.00;101284.78;6197139;28;20100;-75
2021/04/10 06:21:40;;;;;;;15.80;5.53;;;;;;;4.66;99.72;101292.44;6197042;28;20085;-76
2021/04/10 06:24:40;;;;;;;18.27;5.18;;;;;;;4.65;100.00;101295.94;6196688;28;20418;-75
2021/04/10 06:27:41;;;;;;;19.83;5.25;;;;;;;4.65;100.00;101296.81;6197113;28;20057;-75
2021/04/10 06:30:42;;;;;;;15.25;4.82;;;;;;;4.64;99.44;101302.91;6197103;28;20124;-75
2021/04/10 06:33:44;;;;;;;30.73;6.75;;;;;;;4.69;100.00;101300.22;6200219;28;20078;-75
2021/04/10 06:36:45;;;;;;;32.80;6.55;;;;;;;4.71;99.62;101301.03;6201291;28;20050;-75
2021/04/10 06:39:46;;;;;;;16.08;6.45;;;;;;;4.78;98.95;101303.47;6200740;28;20053;-75
2021/04/10 06:42:47;;;;;;;15.98;5.82;;;;;;;4.80;99.05;101306.03;6201189;28;20569;-75
2021/04/10 06:45:48;;;;;;;18.65;6.20;;;;;;;4.78;98.58;101313.03;6200692;28;20123;-75
2021/04/10 06:48:51;;;;;;;24.95;6.00;;;;;;;4.77;98.44;101311.34;6201152;28;20052;-75
2021/04/10 06:51:52;;;;;;;23.60;5.93;;;;;;;4.82;97.96;101317.31;6201163;28;20057;-76
2021/04/10 06:54:57;;;;;;;18.73;5.75;;;;;;;4.92;97.98;101317.97;6200580;28;20050;-76
2021/04/10 06:58:02;;;;;;;20.08;6.85;;;;;;;4.92;98.29;101317.97;6200620;28;20050;-75
2021/04/10 07:01:03;;;;;;;20.27;4.80;;;;;;;5.02;98.01;101317.72;6200875;28;20050;-75
2021/04/10 07:04:06;;;;;;;23.33;5.82;;;;;;;5.12;97.39;101312.31;6200292;28;20060;-76
2021/04/10 07:07:07;;;;;;;22.30;5.63;;;;;;;5.19;96.36;101314.78;6200558;28;20073;-75
2021/04/10 07:10:09;;;;;;;20.10;5.13;;;;;;;5.24;96.61;101314.66;6200433;28;20046;-75
2021/04/10 07:13:10;;;;;;;25.63;5.47;;;;;;;5.31;95.99;101314.50;6200127;28;20534;-75
2021/04/10 07:16:12;;;;;;;15.73;6.15;;;;;;;5.41;94.56;101322.13;6200402;28;20050;-75
2021/04/10 07:19:15;;;;;;;23.38;5.65;;;;;;;5.40;92.34;101328.19;6200321;28;20058;-76
2021/04/10 07:22:16;;;;;;;19.38;6.82;;;;;;;5.46;93.51;101333.28;6200226;28;20435;-75
2021/04/10 07:25:23;;;;;;;24.00;5.97;;;;;;;5.51;94.28;101339.25;6199965;28;20054;-75
2021/04/10 07:28:27;;;;;;;16.60;5.20;;;;;;;5.55;93.89;101336.53;6200249;28;20125;-75
2021/04/10 07:31:33;;;;;;;19.33;5.70;;;;;;;5.58;93.25;101338.19;6199912;28;20058;-75
2021/04/10 07:34:44;;;;;;;17.48;4.68;;;;;;;5.66;92.99;101341.50;6199936;28;20046;-76
2021/04/10 07:37:48;;;;;;;18.65;4.78;;;;;;;5.76;91.11;101352.56;6199869;28;20050;-76
2021/04/10 07:40:49;;;;;;;15.27;3.88;;;;;;;5.74;91.49;101349.16;6199900;28;20051;-75
2021/04/10 07:43:50;;;;;;;14.82;3.67;;;;;;;5.93;91.15;101353.06;6198863;28;20057;-76
2021/04/10 07:47:02;;;;;;;18.73;4.95;;;;;;;5.91;90.73;101349.59;6199743;28;20053;-75
2021/04/10 07:50:23;;;;;;;13.15;3.70;;;;;;;5.97;91.34;101352.09;6199865;28;20043;-77
2021/04/10 07:53:26;;;;;;;20.23;4.10;;;;;;;6.02;91.16;101355.44;6199217;28;20108;-75
2021/04/10 07:56:47;;;;;;;21.20;5.05;;;;;;;6.12;90.88;101353.44;6199414;28;20525;-77
2021/04/10 07:59:53;;;;;;;16.73;4.47;;;;;;;6.15;87.04;101353.38;6199171;28;20053;-76
2021/04/10 08:02:54;;;;;;;15.80;4.32;;;;;;;6.05;86.43;101351.91;6198951;28;20124;-77
2021/04/10 08:05:57;;;;;;;21.10;5.13;;;;;;;6.14;87.37;101349.06;6199383;28;20058;-76
2021/04/10 08:09:00;;;;;;;20.95;5.05;;;;;;;6.20;88.08;101354.13;6199120;28;20077;-76
2021/04/10 08:12:02;;;;;;;16.58;4.40;;;;;;;6.30;88.15;101359.97;6199271;28;20042;-76
2021/04/10 08:15:06;;;;;;;19.65;6.28;;;;;;;6.49;88.17;101363.78;6198590;28;20486;-76
2021/04/10 08:18:23;;;;;;;17.27;6.70;;;;;;;6.48;87.35;101367.31;6199016;28;20089;-76
2021/04/10 08:21:39;;;;;;;23.08;6.80;;;;;;;6.43;85.82;101369.19;6198875;28;20065;-76
2021/04/10 08:24:42;;;;;;;27.80;8.13;;;;;;;6.47;87.25;101372.56;6202645;28;20054;-78
2021/04/10 08:27:43;;;;;;;26.55;8.07;;;;;;;6.46;85.74;101368.25;6223726;28;20512;-77
2021/04/10 08:30:45;;;;;;;20.08;7.95;;;;;;;6.54;86.26;101369.78;6218447;28;20100;-78
2021/04/10 08:33:46;;;;;;;30.88;9.25;;;;;;;6.55;86.85;101368.88;6216624;28;20046;-80
2021/04/10 08:36:52;;;;;;;26.05;8.65;;;;;;;6.41;86.60;101373.59;6200352;28;20050;-78
2021/04/10 08:39:56;;;;;;;22.80;9.10;;;;;;;6.31;87.71;101379.94;6215367;28;20061;-79
2021/04/10 08:42:58;;;;;;;41.40;11.55;;;;;;;6.30;87.54;101394.75;6224079;28;20441;-78
2021/04/10 08:46:00;;;;;;;21.67;8.07;;;;;;;6.34;88.02;101400.75;6224084;28;20053;-79
2021/04/10 08:49:00;;;;;;;23.55;8.45;;;;;;;6.30;87.27;101405.19;6203588;28;20053;-78
2021/04/10 08:52:06;;;;;;;34.58;10.55;;;;;;;6.30;88.53;101407.78;6200236;28;20466;-78
2021/04/10 08:55:09;;;;;;;29.55;9.45;;;;;;;6.31;87.18;101406.91;6198969;28;20529;-78
2021/04/10 08:58:24;;;;;;;32.47;9.68;;;;;;;6.47;88.19;101415.22;6199813;28;20467;-76
2021/04/10 09:01:30;;;;;;;25.75;8.90;;;;;;;6.66;86.86;101418.19;6216959;28;20053;-78
2021/04/10 09:04:59;;;;;;;25.60;9.77;;;;;;;6.76;86.17;101419.66;6216164;28;20145;-79
2021/04/10 09:08:01;;;;;;;33.35;9.70;;;;;;;6.84;85.64;101422.06;6215829;28;20133;-79
2021/04/10 09:11:04;;;;;;;26.05;9.05;;;;;;;7.10;84.73;101422.22;6212710;28;20057;-79
2021/04/10 09:14:05;;;;;;;31.88;9.18;;;;;;;7.01;84.02;101422.47;6206970;28;20107;-79
2021/04/10 09:17:06;;;;;;;29.13;9.30;;;;;;;7.46;84.44;101427.28;6199246;28;20490;-79
2021/04/10 09:20:08;;;;;;;27.85;8.93;;;;;;;7.59;81.75;101423.41;6199615;28;20054;-77
2021/04/10 09:23:25;;;;;;;33.30;10.25;;;;;;;7.47;80.74;101423.78;6198940;28;20113;-79
2021/04/10 09:26:26;;;;;;;27.88;8.75;;;;;;;7.30;82.06;101426.00;6198948;28;20049;-78
2021/04/10 09:29:29;;;;;;;29.20;8.93;;;;;;;7.22;82.06;101431.47;6203861;28;20042;-77
2021/04/10 09:32:35;;;;;;;25.83;9.63;;;;;;;7.52;82.30;101423.63;6197894;28;20503;-78
2021/04/10 09:35:36;;;;;;;24.60;10.00;;;;;;;7.69;82.98;101428.38;6197737;28;20054;-76
2021/04/10 09:38:39;;;;;;;20.63;7.00;;;;;;;7.71;79.19;101439.63;6204308;28;20046;-79
2021/04/10 09:41:50;;;;;;;20.42;7.22;;;;;;;7.71;76.19;101434.41;6222336;28;20486;-79
2021/04/10 09:45:04;;;;;;;22.05;7.68;;;;;;;7.42;77.61;101433.50;6221495;28;20130;-77
2021/04/10 09:48:20;;;;;;;26.95;7.32;;;;;;;7.46;75.60;101424.69;6222318;28;20089;-79
2021/04/10 09:51:21;;;;;;;25.70;9.40;;;;;;;7.52;79.35;101428.88;6222271;28;20148;-78
2021/04/10 09:54:26;;;;;;;36.35;17.52;;;;;;;7.71;77.95;101424.78;6222434;28;20057;-78
2021/04/10 09:57:27;;;;;;;44.80;16.70;;;;;;;7.55;77.56;101429.63;6221998;28;20053;-79
2021/04/10 10:00:30;;;;;;;51.85;21.48;;;;;;;7.58;76.83;101419.06;6222019;28;20045;-78
2021/04/10 10:03:31;;;;;;;33.75;10.45;;;;;;;7.74;78.10;101421.22;6221966;28;20057;-78
2021/04/10 10:06:39;;;;;;;20.10;8.77;;;;;;;7.77;76.42;101415.91;6222490;28;20068;-77
2021/04/10 10:09:40;;;;;;;17.27;6.78;;;;;;;7.85;77.51;101416.50;6226791;28;20381;-78
2021/04/10 10:12:41;;;;;;;23.70;6.50;;;;;;;7.74;74.75;101424.69;6227038;28;20050;-78
2021/04/10 10:15:43;;;;;;;30.17;6.82;;;;;;;7.74;75.85;101418.63;6227046;28;20058;-78
2021/04/10 10:18:44;;;;;;;22.58;6.97;;;;;;;7.88;76.34;101411.19;6226751;28;20440;-78
2021/04/10 10:21:45;;;;;;;16.92;6.35;;;;;;;7.87;76.89;101412.09;6226926;28;20050;-78
2021/04/10 10:24:59;;;;;;;17.95;5.40;;;;;;;7.97;76.23;101417.91;6226476;28;20518;-78
2021/04/10 10:28:02;;;;;;;27.67;6.13;;;;;;;8.04;76.74;101414.16;6225805;28;20407;-78
2021/04/10 10:31:05;;;;;;;27.70;6.82;;;;;;;8.06;76.79;101409.75;6226005;28;20057;-78
2021/04/10 10:34:07;;;;;;;20.42;6.22;;;;;;;8.33;73.96;101410.59;6225491;28;20050;-78
2021/04/10 10:37:08;;;;;;;26.05;6.35;;;;;;;8.30;75.43;101408.06;6225446;28;20391;-78
2021/04/10 10:40:19;;;;;;;19.05;6.45;;;;;;;8.29;76.20;101414.22;6225738;28;20405;-78
2021/04/10 10:43:24;;;;;;;20.00;5.78;;;;;;;8.05;75.53;101408.03;6225132;28;20057;-78
2021/04/10 10:46:25;;;;;;;18.52;6.15;;;;;;;7.94;76.45;101408.38;6224317;28;20046;-76
2021/04/10 10:49:26;;;;;;;25.50;6.13;;;;;;;7.96;76.65;101410.94;6211409;28;20129;-79
2021/04/10 10:52:27;;;;;;;23.02;6.57;;;;;;;8.11;76.17;101405.22;6208097;28;20050;-76
2021/04/10 10:55:29;;;;;;;15.60;5.22;;;;;;;7.96;73.13;101403.09;6213364;28;20704;-77
2021/04/10 10:58:32;;;;;;;15.30;4.70;;;;;;;8.00;75.98;101408.19;6208490;28;20486;-77
2021/04/10 11:01:34;;;;;;;19.40;4.32;;;;;;;8.06;73.23;101410.59;6210979;28;20056;-77
2021/04/10 11:04:36;;;;;;;15.70;4.13;;;;;;;8.12;73.60;101414.78;6211404;28;20046;-77
2021/04/10 11:07:38;;;;;;;23.35;4.60;;;;;;;8.34;71.45;101407.06;6210796;28;20050;-77
2021/04/10 11:10:40;;;;;;;12.50;3.80;;;;;;;8.13;73.02;101406.88;6205808;28;20510;-78
2021/04/10 11:13:43;;;;;;;17.73;4.57;;;;;;;8.05;72.78;101421.13;6207771;28;20429;-79
2021/04/10 11:16:46;;;;;;;19.70;3.90;;;;;;;7.99;74.43;101408.22;6209352;28;20046;-78
2021/04/10 11:19:47;;;;;;;16.95;4.50;;;;;;;8.06;73.52;101397.50;6215096;28;20056;-79
2021/04/10 11:23:02;;;;;;;12.40;3.10;;;;;;;8.22;71.33;101395.25;6207239;28;20045;-79
2021/04/10 11:26:03;;;;;;;27.30;3.63;;;;;;;8.29;71.71;101399.38;6210420;28;20042;-79
2021/04/10 11:29:23;;;;;;;17.67;4.07;;;;;;;8.17;72.18;101398.91;6212766;28;20057;-78
2021/04/10 11:32:26;;;;;;;13.93;3.47;;;;;;;8.04;72.29;101401.06;6207958;28;20042;-78
2021/04/10 11:35:27;;;;;;;12.68;3.40;;;;;;;7.93;74.16;101404.03;6208100;28;20050;-78
2021/04/10 11:38:28;;;;;;;13.10;4.05;;;;;;;7.88;73.59;101398.94;6200325;28;20077;-79
2021/04/10 11:41:43;;;;;;;12.30;3.47;;;;;;;7.77;73.34;101397.59;6200506;28;20700;-79
2021/04/10 11:44:44;;;;;;;15.23;5.03;;;;;;;7.78;74.21;101400.16;6199604;28;20046;-79
2021/04/10 11:47:45;;;;;;;15.20;4.80;;;;;;;7.83;73.95;101397.41;6199087;28;20061;-78
2021/04/10 11:50:51;;;;;;;11.77;3.05;;;;;;;7.69;73.40;101384.75;6210106;28;20173;-78
2021/04/10 11:53:52;;;;;;;22.73;5.63;;;;;;;7.74;74.19;101388.06;6212570;28;20480;-79
2021/04/10 11:56:54;;;;;;;10.18;2.70;;;;;;;7.83;73.26;101389.53;6209640;28;20253;-79
2021/04/10 12:00:12;;;;;;;18.77;3.50;;;;;;;7.79;72.57;101383.53;6212170;28;20046;-76
2021/04/10 12:03:15;;;;;;;15.88;3.03;;;;;;;7.79;73.20;101380.94;6199028;28;20461;-79
2021/04/10 12:06:27;;;;;;;14.93;2.65;;;;;;;7.70;73.66;101386.44;6200180;28;20395;-79
2021/04/10 12:09:28;;;;;;;10.85;3.20;;;;;;;7.71;74.09;101382.91;6201342;28;20097;-79
2021/04/10 12:12:29;;;;;;;10.95;3.08;;;;;;;7.68;75.19;101383.03;6202545;28;20507;-79
2021/04/10 12:15:32;;;;;;;15.98;3.35;;;;;;;7.59;75.10;101380.72;6200086;28;20054;-79
2021/04/10 12:18:33;;;;;;;12.20;3.00;;;;;;;7.52;75.01;101381.78;6216933;28;20046;-78
2021/04/10 12:21:35;;;;;;;13.50;2.92;;;;;;;7.48;76.16;101388.88;6210738;28;20414;-79
2021/04/10 12:24:35;;;;;;;19.17;2.67;;;;;;;7.48;77.64;101388.88;6216959;28;20052;-79
2021/04/10 12:27:37;;;;;;;13.90;3.05;;;;;;;7.55;78.03;101395.63;6225318;28;20478;-79
2021/04/10 12:30:38;;;;;;;15.73;3.05;;;;;;;7.47;77.30;101386.31;6225728;28;20433;-80
2021/04/10 12:33:39;;;;;;;14.73;3.70;;;;;;;7.38;79.30;101398.75;6224463;28;20061;-79
2021/04/10 12:36:40;;;;;;;17.70;3.50;;;;;;;7.31;79.96;101386.78;6243962;23;20406;-71
2021/04/10 12:39:41;;;;;;;21.23;3.92;;;;;;;7.31;80.75;101394.63;6221922;28;20050;-73
2021/04/10 12:42:43;;;;;;;18.65;5.53;;;;;;;7.27;80.37;101386.91;6224397;28;20080;-73
2021/04/10 12:45:44;;;;;;;12.90;3.30;;;;;;;7.27;80.56;101393.00;6217947;28;20108;-71
2021/04/10 12:48:46;;;;;;;14.48;3.80;;;;;;;7.33;80.36;101389.34;6221602;28;20042;-71
2021/04/10 12:51:46;;;;;;;13.68;3.70;;;;;;;7.17;81.87;101380.22;6200007;28;20050;-70
2021/04/10 12:54:47;;;;;;;15.63;3.40;;;;;;;7.29;80.34;101374.63;6197695;28;20136;-71
2021/04/10 12:57:49;;;;;;;12.45;3.38;;;;;;;7.33;81.53;101373.66;6196669;28;20116;-71
2021/04/10 13:00:50;;;;;;;14.98;4.03;;;;;;;7.43;81.00;101366.38;6198553;28;20054;-71
2021/04/10 13:03:52;;;;;;;14.65;4.25;;;;;;;7.60;79.13;101371.94;6198196;28;20057;-71
2021/04/10 13:06:56;;;;;;;19.23;3.40;;;;;;;7.64;79.67;101365.72;6198115;28;20069;-71
2021/04/10 13:09:58;;;;;;;21.38;4.50;;;;;;;7.63;79.18;101366.63;6198186;28;20054;-71
2021/04/10 13:12:59;;;;;;;23.02;5.15;;;;;;;7.65;79.37;101362.19;6197445;28;20046;-72
2021/04/10 13:16:00;;;;;;;16.15;3.78;;;;;;;7.69;79.02;101355.13;6197605;28;20057;-71
2021/04/10 13:19:01;;;;;;;19.90;3.67;;;;;;;7.65;78.22;101363.97;6197733;28;20050;-71
2021/04/10 13:22:03;;;;;;;22.67;6.88;;;;;;;7.79;77.69;101362.63;6196473;28;20108;-72
2021/04/10 13:25:05;;;;;;;13.90;4.38;;;;;;;7.65;78.81;101350.88;6204083;28;20564;-72
2021/04/10 13:28:07;;;;;;;36.15;11.30;;;;;;;7.57;77.72;101345.88;6197330;28;20403;-71
2021/04/10 13:31:07;;;;;;;35.97;11.10;;;;;;;7.56;78.21;101341.56;6200745;28;20054;-71
2021/04/10 13:34:08;;;;;;;29.52;8.77;;;;;;;7.61;78.27;101344.88;6196745;28;20506;-72
2021/04/10 13:37:09;;;;;;;15.90;5.68;;;;;;;7.59;78.75;101337.09;6197563;28;20054;-71
2021/04/10 13:40:11;;;;;;;28.05;9.63;;;;;;;7.62;77.65;101328.28;6215400;28;20046;-72
2021/04/10 13:43:12;;;;;;;20.85;3.97;;;;;;;7.57;78.57;101327.56;6225429;28;20054;-72
2021/04/10 13:46:16;;;;;;;21.02;5.75;;;;;;;7.64;78.38;101323.88;6204835;28;20690;-73
2021/04/10 13:49:18;;;;;;;20.70;5.10;;;;;;;7.77;78.72;101321.72;6202501;28;20046;-72
2021/04/10 13:52:19;;;;;;;19.33;5.65;;;;;;;8.07;77.86;101315.44;6202743;28;20050;-72
2021/04/10 13:55:20;;;;;;;20.00;5.97;;;;;;;8.13;77.46;101314.41;6201806;28;20050;-74
2021/04/10 13:58:22;;;;;;;22.80;5.60;;;;;;;8.35;78.09;101307.50;6202130;28;20061;-74
2021/04/10 14:01:23;;;;;;;21.15;7.35;;;;;;;8.51;76.72;101301.78;6202181;28;20057;-74
2021/04/10 14:04:29;;;;;;;19.35;3.58;;;;;;;8.60;75.45;101301.44;6201484;28;20050;-75
2021/04/10 14:07:33;;;;;;;23.98;5.25;;;;;;;8.55;75.96;101300.75;6201820;28;20128;-74
2021/04/10 14:10:34;;;;;;;17.25;5.10;;;;;;;8.68;73.63;101291.53;6201677;28;20054;-71